createdAt,value
2019-01-10T00:00:19.238Z,3.50
2019-01-10T00:02:47.542Z,4.77
2019-01-10T00:05:16.152Z,3.97
2019-01-10T00:07:44.377Z,5.93
2019-01-10T00:10:14.053Z,5.33
2019-01-10T00:12:42.584Z,4.17
2019-01-10T00:15:13.274Z,4.90
2019-01-10T00:17:41.341Z,4.93
2019-01-10T00:20:12.767Z,6.07
2019-01-10T00:22:41.305Z,6.67
2019-01-10T00:25:10.041Z,5.17
2019-01-10T00:27:38.420Z,7.00
2019-01-10T00:30:10.509Z,6.10
2019-01-10T00:32:39.026Z,5.80
2019-01-10T00:35:07.466Z,4.07
2019-01-10T00:37:35.689Z,5.07
2019-01-10T00:40:07.230Z,6.13
2019-01-10T00:42:35.685Z,5.63
2019-01-10T00:45:05.546Z,5.33
2019-01-10T00:47:33.664Z,6.07
2019-01-10T00:50:02.008Z,6.57
2019-01-10T00:52:30.196Z,5.13
2019-01-10T00:54:58.553Z,5.90
2019-01-10T00:57:27.145Z,6.13
2019-01-10T00:59:55.354Z,6.10
2019-01-10T01:02:23.719Z,7.30
2019-01-10T01:04:51.809Z,5.90
2019-01-10T01:07:19.747Z,5.93
2019-01-10T01:09:48.610Z,6.33
2019-01-10T01:12:16.864Z,6.13
2019-01-10T01:14:44.898Z,6.47
2019-01-10T01:17:13.284Z,5.50
2019-01-10T01:19:41.634Z,8.43
2019-01-10T01:22:10.064Z,6.57
2019-01-10T01:24:38.413Z,7.50
2019-01-10T01:27:06.774Z,6.60
2019-01-10T01:29:35.337Z,7.43
2019-01-10T01:32:03.613Z,8.97
2019-01-10T01:34:31.892Z,7.10
2019-01-10T01:36:59.991Z,6.07
2019-01-10T01:39:28.068Z,7.63
2019-01-10T01:41:56.433Z,8.07
2019-01-10T01:44:25.628Z,5.80
2019-01-10T01:46:53.641Z,11.53
2019-01-10T01:49:21.903Z,7.67
2019-01-10T01:51:49.982Z,7.13
2019-01-10T01:54:18.342Z,7.40
2019-01-10T01:56:47.050Z,6.83
2019-01-10T01:59:15.727Z,4.63
2019-01-10T02:01:44.120Z,5.60
2019-01-10T02:04:12.266Z,5.70
2019-01-10T02:06:40.549Z,7.27
2019-01-10T02:09:08.912Z,7.03
2019-01-10T02:11:37.321Z,6.57
2019-01-10T02:14:05.380Z,6.10
2019-01-10T02:16:33.742Z,5.83
2019-01-10T02:19:01.925Z,7.60
2019-01-10T02:21:30.486Z,7.30
2019-01-10T02:23:59.206Z,7.07
2019-01-10T02:26:27.332Z,7.03
2019-01-10T02:28:55.656Z,7.13
2019-01-10T02:31:24.675Z,5.30
2019-01-10T02:33:53.601Z,7.87
2019-01-10T02:36:22.063Z,5.93
2019-01-10T02:38:50.650Z,5.27
2019-01-10T02:41:19.618Z,6.17
2019-01-10T02:43:48.080Z,6.20
2019-01-10T02:46:16.463Z,7.83
2019-01-10T02:48:45.221Z,7.67
2019-01-10T02:51:14.566Z,7.57
2019-01-10T02:53:42.929Z,8.53
2019-01-10T02:56:11.480Z,6.43
2019-01-10T02:58:39.683Z,5.30
2019-01-10T03:01:08.295Z,5.10
2019-01-10T03:03:36.926Z,5.97
2019-01-10T03:06:05.410Z,4.90
2019-01-10T03:08:33.762Z,5.17
2019-01-10T03:11:02.936Z,5.70
2019-01-10T03:13:36.949Z,6.73
2019-01-10T03:16:02.560Z,5.97
2019-01-10T03:18:30.623Z,5.77
2019-01-10T03:20:58.676Z,7.67
2019-01-10T03:23:26.735Z,6.60
2019-01-10T03:25:55.491Z,7.23
2019-01-10T03:28:23.809Z,6.17
2019-01-10T03:30:52.291Z,5.50
2019-01-10T03:33:20.824Z,6.13
2019-01-10T03:35:48.954Z,5.70
2019-01-10T03:38:17.400Z,5.77
2019-01-10T03:40:45.716Z,6.20
2019-01-10T03:43:14.670Z,4.90
2019-01-10T03:45:42.857Z,5.67
2019-01-10T03:48:10.817Z,5.03
2019-01-10T03:50:39.286Z,5.33
2019-01-10T03:53:07.646Z,6.07
2019-01-10T03:55:35.948Z,5.90
2019-01-10T03:58:04.796Z,5.60
2019-01-10T04:00:32.998Z,6.30
2019-01-10T04:03:01.173Z,4.37
2019-01-10T04:05:29.746Z,5.33
2019-01-10T04:07:57.843Z,5.67
2019-01-10T04:10:26.910Z,5.00
2019-01-10T04:12:55.180Z,5.03
2019-01-10T04:15:23.596Z,5.43
2019-01-10T04:17:52.075Z,5.53
2019-01-10T04:20:19.918Z,4.80
2019-01-10T04:22:47.598Z,5.53
2019-01-10T04:25:15.499Z,5.83
2019-01-10T04:27:43.287Z,6.63
2019-01-10T04:30:13.955Z,4.07
2019-01-10T04:32:41.678Z,6.17
2019-01-10T04:35:09.527Z,4.50
2019-01-10T04:37:37.627Z,6.97
2019-01-10T04:40:06.787Z,6.40
2019-01-10T04:42:34.896Z,6.40
2019-01-10T04:45:03.264Z,4.30
2019-01-10T04:47:32.569Z,5.80
2019-01-10T04:50:01.634Z,5.97
2019-01-10T04:52:29.369Z,5.07
2019-01-10T04:54:57.334Z,5.47
2019-01-10T04:57:25.436Z,4.30
2019-01-10T04:59:53.179Z,4.37
2019-01-10T05:02:21.280Z,4.57
2019-01-10T05:04:49.608Z,5.37
2019-01-10T05:07:17.722Z,6.17
2019-01-10T05:09:45.470Z,4.67
2019-01-10T05:12:13.661Z,4.63
2019-01-10T05:14:41.381Z,4.27
2019-01-10T05:17:10.581Z,4.90
2019-01-10T05:19:38.754Z,2.70
2019-01-10T05:22:07.374Z,4.60
2019-01-10T05:24:35.136Z,4.27
2019-01-10T05:27:02.809Z,4.90
2019-01-10T05:29:30.538Z,4.17
2019-01-10T05:31:58.240Z,4.50
2019-01-10T05:34:26.006Z,5.87
2019-01-10T05:36:53.684Z,4.27
2019-01-10T05:39:22.249Z,4.80
2019-01-10T05:41:50.022Z,7.63
2019-01-10T05:44:26.490Z,5.27
2019-01-10T05:46:48.563Z,4.67
2019-01-10T05:49:17.664Z,4.60
2019-01-10T05:51:45.401Z,5.40
2019-01-10T05:54:13.420Z,4.83
2019-01-10T05:56:41.903Z,4.80
2019-01-10T05:59:10.047Z,4.33
2019-01-10T06:01:38.307Z,6.40
2019-01-10T06:04:06.485Z,4.27
2019-01-10T06:06:35.074Z,5.10
2019-01-10T06:09:04.003Z,5.63
2019-01-10T06:11:32.208Z,3.67
2019-01-10T06:14:00.818Z,4.70
2019-01-10T06:16:29.310Z,4.70
2019-01-10T06:18:57.874Z,5.23
2019-01-10T06:21:25.963Z,4.80
2019-01-10T06:23:54.482Z,5.03
2019-01-10T06:26:22.905Z,5.63
2019-01-10T06:28:51.007Z,4.23
2019-01-10T06:31:19.412Z,5.23
2019-01-10T06:33:48.052Z,4.53
2019-01-10T06:36:16.868Z,4.37
2019-01-10T06:38:44.556Z,5.67
2019-01-10T06:41:12.724Z,5.13
2019-01-10T06:43:40.801Z,4.43
2019-01-10T06:46:09.260Z,5.27
2019-01-10T06:48:39.258Z,3.90
2019-01-10T06:51:08.730Z,5.10
2019-01-10T06:53:36.457Z,6.00
2019-01-10T06:56:04.167Z,4.63
2019-01-10T06:58:32.225Z,4.33
2019-01-10T07:00:59.952Z,5.90
2019-01-10T07:03:27.642Z,4.23
2019-01-10T07:05:56.009Z,4.90
2019-01-10T07:08:24.157Z,4.37
2019-01-10T07:10:52.348Z,6.43
2019-01-10T07:13:20.423Z,7.30
2019-01-10T07:15:48.891Z,3.80
2019-01-10T07:18:20.177Z,5.23
2019-01-10T07:20:48.730Z,4.20
2019-01-10T07:23:17.459Z,4.10
2019-01-10T07:25:47.202Z,4.47
2019-01-10T07:28:24.885Z,5.70
2019-01-10T07:30:58.062Z,4.23
2019-01-10T07:33:26.928Z,3.87
2019-01-10T07:35:58.235Z,5.17
2019-01-10T07:38:27.991Z,4.93
2019-01-10T07:40:55.922Z,4.40
2019-01-10T07:43:27.328Z,3.77
2019-01-10T07:45:56.058Z,3.27
2019-01-10T07:48:23.786Z,3.83
2019-01-10T07:50:51.573Z,3.90
2019-01-10T07:53:19.478Z,4.00
2019-01-10T07:55:49.535Z,6.28
2019-01-10T07:58:17.316Z,5.75
2019-01-10T08:00:47.723Z,3.77
2019-01-10T08:03:16.413Z,3.83
2019-01-10T08:05:58.366Z,4.13
2019-01-10T08:08:29.460Z,4.73
2019-01-10T08:10:57.451Z,4.00
2019-01-10T08:13:25.974Z,3.73
2019-01-10T08:15:54.476Z,5.33
2019-01-10T08:18:42.095Z,4.13
2019-01-10T08:21:09.966Z,4.53
2019-01-10T08:23:38.854Z,3.50
2019-01-10T08:26:07.435Z,3.67
2019-01-10T08:28:35.918Z,3.50
2019-01-10T08:31:04.320Z,2.67
2019-01-10T08:33:32.406Z,4.03
2019-01-10T08:36:00.854Z,5.50
2019-01-10T08:38:29.416Z,4.30
2019-01-10T08:40:57.318Z,3.80
2019-01-10T08:43:25.281Z,4.07
2019-01-10T08:45:53.043Z,3.23
2019-01-10T08:48:22.478Z,3.13
2019-01-10T08:50:51.458Z,3.20
2019-01-10T08:53:21.714Z,3.63
2019-01-10T08:55:49.885Z,3.60
2019-01-10T08:58:17.793Z,2.37
2019-01-10T09:01:04.863Z,3.80
2019-01-10T09:03:36.032Z,3.43
2019-01-10T09:06:13.366Z,3.97
2019-01-10T09:08:50.072Z,3.60
2019-01-10T09:11:32.227Z,3.30
2019-01-10T09:14:17.017Z,4.60
2019-01-10T09:16:44.807Z,3.77
2019-01-10T09:19:12.549Z,3.27
2019-01-10T09:21:43.744Z,3.97
2019-01-10T09:24:14.223Z,3.37
2019-01-10T09:26:42.879Z,2.40
2019-01-10T09:29:10.733Z,5.37
2019-01-10T09:31:41.679Z,2.67
2019-01-10T09:34:09.970Z,2.93
2019-01-10T09:36:37.904Z,4.00
2019-01-10T09:39:07.618Z,3.37
2019-01-10T09:41:36.124Z,3.30
2019-01-10T09:44:06.083Z,5.53
2019-01-10T09:46:34.407Z,4.70
2019-01-10T09:49:03.663Z,4.27
2019-01-10T09:51:31.350Z,4.07
2019-01-10T09:53:59.160Z,4.17
2019-01-10T09:56:27.402Z,5.27
2019-01-10T09:58:55.464Z,3.90
2019-01-10T10:01:23.681Z,4.03
2019-01-10T10:03:51.962Z,4.73
2019-01-10T10:06:19.769Z,4.77
2019-01-10T10:08:50.010Z,3.87
2019-01-10T10:11:19.507Z,2.90
2019-01-10T10:13:49.205Z,5.93
2019-01-10T10:16:17.081Z,3.80
2019-01-10T10:18:45.190Z,3.43
2019-01-10T10:21:13.299Z,5.07
2019-01-10T10:23:42.919Z,4.60
2019-01-10T10:26:10.778Z,3.87
2019-01-10T10:28:38.917Z,5.13
2019-01-10T10:31:07.116Z,4.37
2019-01-10T10:33:34.837Z,3.53
2019-01-10T10:36:02.715Z,4.00
2019-01-10T10:38:32.365Z,5.13
2019-01-10T10:41:02.381Z,3.63
2019-01-10T10:43:31.723Z,3.93
2019-01-10T10:46:01.656Z,4.07
2019-01-10T10:48:30.856Z,4.40
2019-01-10T10:50:58.593Z,4.13
2019-01-10T10:53:26.855Z,4.97
2019-01-10T10:55:54.581Z,3.97
2019-01-10T10:58:22.461Z,4.67
2019-01-10T11:00:51.388Z,5.70
2019-01-10T11:03:19.732Z,5.23
2019-01-10T11:05:48.145Z,3.10
2019-01-10T11:08:15.975Z,3.83
2019-01-10T11:10:44.094Z,5.63
2019-01-10T11:13:12.246Z,3.40
2019-01-10T11:15:42.784Z,4.50
2019-01-10T11:18:10.617Z,4.03
2019-01-10T11:20:41.143Z,5.00
2019-01-10T11:23:10.803Z,5.07
2019-01-10T11:25:40.960Z,5.17
2019-01-10T11:28:08.616Z,3.90
2019-01-10T11:30:36.303Z,5.97
2019-01-10T11:33:04.053Z,5.83
2019-01-10T11:35:32.779Z,5.17
2019-01-10T11:38:00.989Z,4.97
2019-01-10T11:40:29.349Z,5.43
2019-01-10T11:42:57.546Z,5.17
2019-01-10T11:45:27.330Z,5.93
2019-01-10T11:47:55.142Z,4.63
2019-01-10T11:50:24.874Z,5.57
2019-01-10T11:52:54.403Z,5.57
2019-01-10T11:55:22.884Z,4.87
2019-01-10T11:57:50.914Z,5.43
2019-01-10T12:00:36.843Z,4.93
2019-01-10T12:03:09.203Z,5.27
2019-01-10T12:05:47.563Z,4.60
2019-01-10T12:08:11.469Z,4.60
2019-01-10T12:10:39.613Z,4.73
2019-01-10T12:13:09.246Z,5.00
2019-01-10T12:15:38.687Z,5.47
2019-01-10T12:18:07.212Z,5.13
2019-01-10T12:20:34.960Z,5.03
2019-01-10T12:23:03.622Z,5.03
2019-01-10T12:25:31.885Z,5.47
2019-01-10T12:28:00.042Z,4.97
2019-01-10T12:30:46.175Z,6.67
2019-01-10T12:33:32.207Z,3.40
2019-01-10T12:36:14.461Z,4.30
2019-01-10T12:38:52.804Z,3.50
2019-01-10T12:41:36.630Z,3.23
2019-01-10T12:44:16.316Z,3.80
2019-01-10T12:46:56.656Z,3.67
2019-01-10T12:49:38.629Z,3.97
2019-01-10T12:52:16.992Z,4.27
2019-01-10T12:54:52.397Z,3.63
2019-01-10T12:57:20.666Z,4.03
2019-01-10T13:00:04.682Z,3.37
2019-01-10T13:02:52.625Z,2.60
2019-01-10T13:05:38.765Z,2.87
2019-01-10T13:08:18.140Z,3.80
2019-01-10T13:10:58.000Z,3.37
2019-01-10T13:13:44.633Z,3.73
2019-01-10T13:16:27.218Z,2.00
2019-01-10T13:19:02.671Z,3.73
2019-01-10T13:21:46.652Z,4.13
2019-01-10T13:24:24.585Z,2.70
2019-01-10T13:29:51.238Z,3.27
2019-01-10T13:32:27.091Z,3.33
2019-01-10T13:35:08.586Z,3.97
2019-01-10T13:37:59.295Z,3.63
2019-01-10T13:40:51.756Z,3.93
2019-01-10T13:43:21.584Z,3.70
2019-01-10T13:46:01.335Z,7.57
2019-01-10T13:48:39.987Z,7.23
2019-01-10T13:51:21.433Z,3.73
2019-01-10T13:53:49.679Z,3.20
2019-01-10T13:56:20.346Z,3.70
2019-01-10T13:58:48.487Z,3.20
2019-01-10T14:01:17.113Z,4.70
2019-01-10T14:03:45.192Z,3.60
2019-01-10T14:06:13.993Z,4.33
2019-01-10T14:08:44.572Z,6.60
2019-01-10T14:11:15.357Z,4.87
2019-01-10T14:13:43.052Z,3.90
2019-01-10T14:16:11.364Z,4.73
2019-01-10T14:18:40.147Z,4.33
2019-01-10T14:21:19.368Z,4.23
2019-01-10T14:23:50.187Z,4.70
2019-01-10T14:26:19.801Z,5.77
2019-01-10T14:28:51.601Z,4.73
2019-01-10T14:31:19.506Z,2.73
2019-01-10T14:33:48.396Z,4.53
2019-01-10T14:36:16.308Z,4.03
2019-01-10T14:38:44.043Z,5.13
2019-01-10T14:41:11.816Z,4.57
2019-01-10T14:43:40.366Z,4.30
2019-01-10T14:46:08.102Z,5.10
2019-01-10T14:48:35.805Z,4.63
2019-01-10T14:51:05.746Z,3.60
2019-01-10T14:53:34.340Z,5.00
2019-01-10T14:56:02.872Z,3.13
2019-01-10T14:58:32.796Z,3.70
2019-01-10T15:01:01.824Z,2.90
2019-01-10T15:03:29.897Z,2.90
2019-01-10T15:05:59.072Z,4.33
2019-01-10T15:08:26.729Z,4.73
2019-01-10T15:11:15.217Z,5.00
2019-01-10T15:13:56.575Z,4.07
2019-01-10T15:16:38.336Z,3.50
2019-01-10T15:19:15.831Z,3.27
2019-01-10T15:21:56.972Z,3.77
2019-01-10T15:24:40.050Z,3.53
2019-01-10T15:27:15.973Z,3.70
2019-01-10T15:29:51.372Z,3.70
2019-01-10T15:32:35.162Z,3.53
2019-01-10T15:35:13.247Z,3.83
2019-01-10T15:37:53.161Z,3.53
2019-01-10T15:40:39.601Z,4.97
2019-01-10T15:43:23.418Z,2.87
2019-01-10T15:45:53.214Z,4.23
2019-01-10T15:48:38.562Z,2.70
2019-01-10T15:51:16.777Z,3.57
2019-01-10T15:53:56.210Z,3.67
2019-01-10T15:57:06.310Z,2.67
2019-01-10T15:59:55.734Z,3.63
2019-01-10T16:02:27.377Z,4.13
2019-01-10T16:04:57.511Z,3.80
2019-01-10T16:07:35.427Z,3.97
2019-01-10T16:10:07.738Z,3.40
2019-01-10T16:12:52.993Z,3.60
2019-01-10T16:15:25.028Z,4.90
2019-01-10T16:20:52.889Z,3.23
2019-01-10T16:23:21.662Z,3.97
2019-01-10T16:25:49.353Z,4.50
2019-01-10T16:28:20.142Z,3.80
2019-01-10T16:30:49.941Z,3.23
2019-01-10T16:33:17.616Z,4.80
2019-01-10T16:35:45.784Z,3.87
2019-01-10T16:38:13.634Z,4.30
2019-01-10T16:40:41.608Z,5.27
2019-01-10T16:43:11.984Z,4.70
2019-01-10T16:45:39.190Z,3.30
2019-01-10T16:48:07.208Z,4.00
2019-01-10T16:50:35.085Z,4.03
2019-01-10T16:53:02.872Z,4.60
2019-01-10T16:55:31.093Z,5.60
2019-01-10T16:58:00.867Z,4.17
2019-01-10T17:00:33.320Z,4.57
2019-01-10T17:03:02.393Z,5.00
2019-01-10T17:05:30.592Z,5.00
2019-01-10T17:07:58.286Z,4.50
2019-01-10T17:10:26.414Z,3.60
2019-01-10T17:12:54.130Z,3.53
2019-01-10T17:15:24.212Z,4.37
2019-01-10T17:17:52.597Z,4.50
2019-01-10T17:20:21.637Z,3.60
2019-01-10T17:22:50.717Z,4.33
2019-01-10T17:25:19.824Z,3.93
2019-01-10T17:27:48.028Z,5.90
2019-01-10T17:30:22.759Z,4.17
2019-01-10T17:32:50.821Z,5.27
2019-01-10T17:35:19.958Z,5.03
2019-01-10T17:37:47.711Z,4.17
2019-01-10T17:40:18.815Z,5.77
2019-01-10T17:43:05.803Z,4.70
2019-01-10T17:45:53.930Z,4.13
2019-01-10T17:48:32.636Z,4.90
2019-01-10T17:51:14.061Z,5.47
2019-01-10T17:53:43.213Z,5.23
2019-01-10T17:56:25.718Z,5.53
2019-01-10T17:59:13.516Z,6.03
2019-01-10T18:01:47.466Z,6.97
2019-01-10T18:04:30.741Z,5.95
2019-01-10T18:07:35.094Z,5.90
2019-01-10T18:10:13.159Z,4.47
2019-01-10T18:12:50.954Z,7.10
2019-01-10T18:15:24.228Z,5.70
2019-01-10T18:18:10.948Z,7.03
2019-01-10T18:20:49.918Z,7.03
2019-01-10T18:23:29.288Z,6.33
2019-01-10T18:26:06.582Z,7.43
2019-01-10T18:28:44.958Z,6.87
2019-01-10T18:31:26.141Z,5.90
2019-01-10T18:33:55.213Z,6.00
2019-01-10T18:36:45.251Z,5.30
2019-01-10T18:39:29.166Z,5.17
2019-01-10T18:42:02.852Z,6.27
2019-01-10T18:44:40.886Z,5.87
2019-01-10T18:47:15.829Z,5.57
2019-01-10T18:49:45.510Z,7.17
2019-01-10T18:52:14.658Z,8.18
2019-01-10T18:54:43.396Z,6.17
2019-01-10T18:57:11.884Z,6.27
2019-01-10T18:59:40.906Z,6.27
2019-01-10T19:02:09.280Z,6.23
2019-01-10T19:04:37.668Z,6.67
2019-01-10T19:07:05.922Z,7.55
2019-01-10T19:09:34.351Z,6.90
2019-01-10T19:12:02.961Z,6.07
2019-01-10T19:14:31.163Z,6.63
2019-01-10T19:16:59.863Z,6.57
2019-01-10T19:19:28.115Z,6.90
2019-01-10T19:21:58.958Z,7.30
2019-01-10T19:24:27.337Z,6.30
2019-01-10T19:26:55.466Z,5.87
2019-01-10T19:29:24.101Z,7.07
2019-01-10T19:31:52.559Z,6.03
2019-01-10T19:34:20.701Z,6.73
2019-01-10T19:36:49.013Z,5.33
2019-01-10T19:39:18.228Z,6.50
2019-01-10T19:41:46.991Z,5.77
2019-01-10T19:44:15.473Z,5.60
2019-01-10T19:46:44.312Z,8.13
2019-01-10T19:49:12.935Z,6.27
2019-01-10T19:51:41.875Z,5.50
2019-01-10T19:54:12.014Z,6.07
2019-01-10T19:56:40.930Z,7.17
2019-01-10T19:59:09.292Z,6.47
2019-01-10T20:01:38.247Z,6.37
2019-01-10T20:04:06.701Z,6.33
2019-01-10T20:06:34.988Z,6.33
2019-01-10T20:09:22.479Z,5.53
2019-01-10T20:11:51.299Z,6.10
2019-01-10T20:14:19.166Z,4.03
2019-01-10T20:16:47.631Z,4.67
2019-01-10T20:19:15.742Z,5.77
2019-01-10T20:21:43.750Z,5.90
2019-01-10T20:24:12.054Z,5.13
2019-01-10T20:26:51.413Z,4.90
2019-01-10T20:29:21.713Z,3.87
2019-01-10T20:31:51.261Z,5.17
2019-01-10T20:34:20.582Z,4.90
2019-01-10T20:36:51.581Z,4.63
2019-01-10T20:39:23.861Z,4.50
2019-01-10T20:41:54.987Z,4.23
2019-01-10T20:44:24.796Z,5.13
2019-01-10T20:46:53.423Z,4.00
2019-01-10T20:49:21.924Z,4.07
2019-01-10T20:51:50.429Z,5.43
2019-01-10T20:54:18.355Z,5.17
2019-01-10T20:56:47.822Z,3.73
2019-01-10T20:59:16.403Z,5.03
2019-01-10T21:01:45.075Z,4.67
2019-01-10T21:04:16.349Z,4.87
2019-01-10T21:06:45.623Z,5.43
2019-01-10T21:09:14.198Z,4.70
2019-01-10T21:11:43.891Z,4.50
2019-01-10T21:14:12.274Z,5.13
2019-01-10T21:16:40.613Z,5.60
2019-01-10T21:19:09.326Z,4.90
2019-01-10T21:21:37.659Z,4.97
2019-01-10T21:24:06.322Z,4.27
2019-01-10T21:26:34.381Z,4.17
2019-01-10T21:29:02.887Z,4.70
2019-01-10T21:31:30.777Z,3.63
2019-01-10T21:34:00.480Z,3.80
2019-01-10T21:36:29.272Z,4.47
2019-01-10T21:38:57.346Z,4.30
2019-01-10T21:41:25.711Z,5.27
2019-01-10T21:43:54.261Z,4.73
2019-01-10T21:46:22.838Z,4.30
2019-01-10T21:48:51.329Z,4.57
2019-01-10T21:51:19.411Z,4.73
2019-01-10T21:53:51.178Z,7.23
2019-01-10T21:56:19.235Z,5.83
2019-01-10T21:58:47.607Z,5.37
2019-01-10T22:01:16.249Z,5.17
2019-01-10T22:03:44.300Z,4.20
2019-01-10T22:06:13.160Z,5.93
2019-01-10T22:08:41.416Z,4.67
2019-01-10T22:11:10.371Z,6.17
2019-01-10T22:13:38.500Z,4.80
2019-01-10T22:16:07.100Z,4.57
2019-01-10T22:18:41.332Z,5.50
2019-01-10T22:21:05.418Z,4.70
2019-01-10T22:23:33.584Z,5.33
2019-01-10T22:26:01.993Z,5.00
2019-01-10T22:28:30.662Z,4.90
2019-01-10T22:30:59.250Z,5.70
2019-01-10T22:33:27.671Z,5.80
2019-01-10T22:35:56.044Z,5.37
2019-01-10T22:38:26.473Z,5.03
2019-01-10T22:40:54.352Z,5.03
2019-01-10T22:43:22.899Z,5.43
2019-01-10T22:45:50.802Z,4.70
2019-01-10T22:48:19.380Z,5.03
2019-01-10T22:50:48.627Z,5.10
2019-01-10T22:53:20.322Z,4.43
2019-01-10T22:55:49.173Z,5.40
2019-01-10T22:58:17.475Z,6.07
2019-01-10T23:01:10.530Z,5.10
2019-01-10T23:03:40.132Z,5.77
2019-01-10T23:06:27.278Z,4.87
2019-01-10T23:08:55.349Z,5.90
2019-01-10T23:11:23.867Z,4.93
2019-01-10T23:14:11.069Z,4.90
2019-01-10T23:16:39.240Z,4.80
2019-01-10T23:19:07.647Z,5.30
2019-01-10T23:21:37.541Z,5.10
2019-01-10T23:24:19.187Z,6.27
2019-01-10T23:26:56.608Z,4.23
2019-01-10T23:29:32.116Z,5.47
2019-01-10T23:32:05.364Z,6.43
2019-01-10T23:34:33.323Z,4.73
2019-01-10T23:37:01.900Z,5.10
2019-01-10T23:39:29.974Z,5.10
2019-01-10T23:41:58.550Z,6.67
2019-01-10T23:44:27.323Z,5.03
2019-01-10T23:46:56.034Z,4.83
2019-01-10T23:49:24.417Z,5.10
2019-01-10T23:51:52.599Z,6.10
2019-01-10T23:54:21.928Z,5.60
2019-01-10T23:56:50.193Z,4.93
2019-01-10T23:59:18.842Z,5.77
